sensor_id;sensor_type;location;lat;lon;timestamp;P1;durP1;ratioP1;P2;durP2;ratioP2
66567;SDS011;53422;49.296;6.900;2023-02-21T00:00:26;13.27;;;5.53;;
66567;SDS011;53422;49.296;6.900;2023-02-21T00:03:10;13.75;;;5.55;;
66567;SDS011;53422;49.296;6.900;2023-02-21T00:05:54;13.93;;;5.65;;
66567;SDS011;53422;49.296;6.900;2023-02-21T00:08:38;10.23;;;4.72;;
66567;SDS011;53422;49.296;6.900;2023-02-21T00:11:22;9.80;;;3.80;;
66567;SDS011;53422;49.296;6.900;2023-02-21T00:14:06;12.43;;;4.88;;
66567;SDS011;53422;49.296;6.900;2023-02-21T00:16:50;8.52;;;3.63;;
66567;SDS011;53422;49.296;6.900;2023-02-21T00:19:34;10.73;;;4.13;;
66567;SDS011;53422;49.296;6.900;2023-02-21T00:22:18;12.10;;;4.22;;
66567;SDS011;53422;49.296;6.900;2023-02-21T00:25:03;12.45;;;4.10;;
66567;SDS011;53422;49.296;6.900;2023-02-21T00:27:47;10.40;;;4.88;;
66567;SDS011;53422;49.296;6.900;2023-02-21T00:30:31;15.73;;;5.93;;
66567;SDS011;53422;49.296;6.900;2023-02-21T00:33:15;13.68;;;5.55;;
66567;SDS011;53422;49.296;6.900;2023-02-21T00:35:59;12.77;;;5.82;;
66567;SDS011;53422;49.296;6.900;2023-02-21T00:38:43;10.30;;;4.85;;
66567;SDS011;53422;49.296;6.900;2023-02-21T00:41:27;13.13;;;5.00;;
66567;SDS011;53422;49.296;6.900;2023-02-21T00:44:11;13.82;;;4.72;;
66567;SDS011;53422;49.296;6.900;2023-02-21T00:46:55;11.23;;;4.43;;
66567;SDS011;53422;49.296;6.900;2023-02-21T00:49:39;10.00;;;4.25;;
66567;SDS011;53422;49.296;6.900;2023-02-21T00:52:23;9.27;;;3.97;;
66567;SDS011;53422;49.296;6.900;2023-02-21T00:55:07;10.52;;;4.20;;
66567;SDS011;53422;49.296;6.900;2023-02-21T00:57:52;11.18;;;3.75;;
66567;SDS011;53422;49.296;6.900;2023-02-21T01:00:36;10.75;;;3.70;;
66567;SDS011;53422;49.296;6.900;2023-02-21T01:03:20;8.38;;;4.18;;
66567;SDS011;53422;49.296;6.900;2023-02-21T01:06:07;7.35;;;3.92;;
66567;SDS011;53422;49.296;6.900;2023-02-21T01:08:53;13.40;;;4.13;;
66567;SDS011;53422;49.296;6.900;2023-02-21T01:11:37;11.02;;;4.07;;
66567;SDS011;53422;49.296;6.900;2023-02-21T01:14:21;12.00;;;3.97;;
66567;SDS011;53422;49.296;6.900;2023-02-21T01:17:05;11.63;;;4.15;;
66567;SDS011;53422;49.296;6.900;2023-02-21T01:19:49;8.95;;;4.18;;
66567;SDS011;53422;49.296;6.900;2023-02-21T01:22:33;11.30;;;3.90;;
66567;SDS011;53422;49.296;6.900;2023-02-21T01:25:17;8.45;;;4.30;;
66567;SDS011;53422;49.296;6.900;2023-02-21T01:28:02;8.90;;;3.45;;
66567;SDS011;53422;49.296;6.900;2023-02-21T01:30:46;10.48;;;4.07;;
66567;SDS011;53422;49.296;6.900;2023-02-21T01:33:37;13.27;;;4.40;;
66567;SDS011;53422;49.296;6.900;2023-02-21T01:36:23;7.97;;;3.88;;
66567;SDS011;53422;49.296;6.900;2023-02-21T01:39:07;9.30;;;4.15;;
66567;SDS011;53422;49.296;6.900;2023-02-21T01:41:52;9.35;;;3.97;;
66567;SDS011;53422;49.296;6.900;2023-02-21T01:44:40;9.88;;;4.43;;
66567;SDS011;53422;49.296;6.900;2023-02-21T01:47:26;9.93;;;5.32;;
66567;SDS011;53422;49.296;6.900;2023-02-21T01:53:04;9.75;;;3.22;;
66567;SDS011;53422;49.296;6.900;2023-02-21T01:55:55;10.70;;;4.38;;
66567;SDS011;53422;49.296;6.900;2023-02-21T01:58:41;10.52;;;4.05;;
66567;SDS011;53422;49.296;6.900;2023-02-21T02:01:35;10.13;;;3.15;;
66567;SDS011;53422;49.296;6.900;2023-02-21T02:04:23;10.45;;;3.72;;
66567;SDS011;53422;49.296;6.900;2023-02-21T02:07:08;10.52;;;3.60;;
66567;SDS011;53422;49.296;6.900;2023-02-21T02:09:52;8.40;;;4.03;;
66567;SDS011;53422;49.296;6.900;2023-02-21T02:19:19;11.63;;;3.67;;
66567;SDS011;53422;49.296;6.900;2023-02-21T02:24:26;8.23;;;3.50;;
66567;SDS011;53422;49.296;6.900;2023-02-21T02:32:39;9.30;;;4.18;;
66567;SDS011;53422;49.296;6.900;2023-02-21T02:46:29;8.35;;;3.63;;
66567;SDS011;53422;49.296;6.900;2023-02-21T02:51:31;12.38;;;3.97;;
66567;SDS011;53422;49.296;6.900;2023-02-21T02:53:59;9.68;;;3.45;;
66567;SDS011;53422;49.296;6.900;2023-02-21T02:56:24;9.27;;;4.00;;
66567;SDS011;53422;49.296;6.900;2023-02-21T02:59:00;8.10;;;3.72;;
66567;SDS011;53422;49.296;6.900;2023-02-21T03:14:54;9.85;;;4.00;;
66567;SDS011;53422;49.296;6.900;2023-02-21T03:17:26;10.25;;;4.13;;
66567;SDS011;53422;49.296;6.900;2023-02-21T03:19:54;8.57;;;3.45;;
66567;SDS011;53422;49.296;6.900;2023-02-21T03:22:23;12.10;;;4.75;;
66567;SDS011;53422;49.296;6.900;2023-02-21T03:24:54;12.00;;;4.28;;
66567;SDS011;53422;49.296;6.900;2023-02-21T03:27:22;11.20;;;4.22;;
66567;SDS011;53422;49.296;6.900;2023-02-21T03:29:50;13.60;;;4.22;;
66567;SDS011;53422;49.296;6.900;2023-02-21T03:32:25;11.73;;;4.68;;
66567;SDS011;53422;49.296;6.900;2023-02-21T03:34:54;10.88;;;4.65;;
66567;SDS011;53422;49.296;6.900;2023-02-21T03:37:41;10.90;;;3.80;;
66567;SDS011;53422;49.296;6.900;2023-02-21T03:40:09;8.73;;;4.32;;
66567;SDS011;53422;49.296;6.900;2023-02-21T03:42:37;10.23;;;4.00;;
66567;SDS011;53422;49.296;6.900;2023-02-21T03:45:02;12.15;;;4.25;;
66567;SDS011;53422;49.296;6.900;2023-02-21T03:47:28;13.00;;;4.68;;
66567;SDS011;53422;49.296;6.900;2023-02-21T03:49:54;11.93;;;4.13;;
66567;SDS011;53422;49.296;6.900;2023-02-21T03:52:19;13.32;;;4.18;;
66567;SDS011;53422;49.296;6.900;2023-02-21T03:54:45;8.32;;;3.92;;
66567;SDS011;53422;49.296;6.900;2023-02-21T03:57:11;11.77;;;4.45;;
66567;SDS011;53422;49.296;6.900;2023-02-21T03:59:36;11.23;;;4.45;;
66567;SDS011;53422;49.296;6.900;2023-02-21T04:02:02;15.30;;;4.15;;
66567;SDS011;53422;49.296;6.900;2023-02-21T04:04:27;15.73;;;4.47;;
66567;SDS011;53422;49.296;6.900;2023-02-21T04:06:53;9.80;;;4.35;;
66567;SDS011;53422;49.296;6.900;2023-02-21T04:09:19;11.88;;;3.95;;
66567;SDS011;53422;49.296;6.900;2023-02-21T04:11:44;9.07;;;4.28;;
66567;SDS011;53422;49.296;6.900;2023-02-21T04:14:10;11.50;;;3.60;;
66567;SDS011;53422;49.296;6.900;2023-02-21T04:16:36;10.48;;;3.97;;
66567;SDS011;53422;49.296;6.900;2023-02-21T04:19:02;9.95;;;4.10;;
66567;SDS011;53422;49.296;6.900;2023-02-21T04:21:28;13.80;;;4.70;;
66567;SDS011;53422;49.296;6.900;2023-02-21T04:23:54;9.48;;;4.22;;
66567;SDS011;53422;49.296;6.900;2023-02-21T04:26:19;8.55;;;3.90;;
66567;SDS011;53422;49.296;6.900;2023-02-21T04:28:45;9.68;;;3.65;;
66567;SDS011;53422;49.296;6.900;2023-02-21T04:31:13;11.63;;;4.22;;
66567;SDS011;53422;49.296;6.900;2023-02-21T04:33:39;9.95;;;4.00;;
66567;SDS011;53422;49.296;6.900;2023-02-21T04:36:05;13.73;;;4.13;;
66567;SDS011;53422;49.296;6.900;2023-02-21T04:38:31;10.32;;;3.97;;
66567;SDS011;53422;49.296;6.900;2023-02-21T04:40:56;10.93;;;4.35;;
66567;SDS011;53422;49.296;6.900;2023-02-21T04:43:22;12.30;;;4.07;;
66567;SDS011;53422;49.296;6.900;2023-02-21T04:45:48;12.60;;;4.10;;
66567;SDS011;53422;49.296;6.900;2023-02-21T04:48:13;11.63;;;4.82;;
66567;SDS011;53422;49.296;6.900;2023-02-21T04:50:39;11.55;;;4.53;;
66567;SDS011;53422;49.296;6.900;2023-02-21T04:53:05;13.10;;;5.30;;
66567;SDS011;53422;49.296;6.900;2023-02-21T04:55:30;8.25;;;3.97;;
66567;SDS011;53422;49.296;6.900;2023-02-21T04:57:56;10.82;;;4.35;;
66567;SDS011;53422;49.296;6.900;2023-02-21T05:00:21;10.52;;;4.30;;
66567;SDS011;53422;49.296;6.900;2023-02-21T05:02:47;12.15;;;4.40;;
66567;SDS011;53422;49.296;6.900;2023-02-21T05:05:13;9.00;;;4.13;;
66567;SDS011;53422;49.296;6.900;2023-02-21T05:07:42;15.32;;;5.28;;
66567;SDS011;53422;49.296;6.900;2023-02-21T05:10:08;8.38;;;4.05;;
66567;SDS011;53422;49.296;6.900;2023-02-21T05:12:35;12.05;;;4.43;;
66567;SDS011;53422;49.296;6.900;2023-02-21T05:15:04;11.43;;;4.78;;
66567;SDS011;53422;49.296;6.900;2023-02-21T05:17:31;15.25;;;3.95;;
66567;SDS011;53422;49.296;6.900;2023-02-21T05:19:57;16.27;;;4.95;;
66567;SDS011;53422;49.296;6.900;2023-02-21T05:22:22;11.00;;;4.32;;
66567;SDS011;53422;49.296;6.900;2023-02-21T05:24:48;11.45;;;4.38;;
66567;SDS011;53422;49.296;6.900;2023-02-21T05:27:18;11.50;;;4.32;;
66567;SDS011;53422;49.296;6.900;2023-02-21T05:29:46;10.80;;;4.63;;
66567;SDS011;53422;49.296;6.900;2023-02-21T05:32:13;10.95;;;3.97;;
66567;SDS011;53422;49.296;6.900;2023-02-21T05:34:38;11.30;;;3.97;;
66567;SDS011;53422;49.296;6.900;2023-02-21T05:37:08;14.13;;;4.88;;
66567;SDS011;53422;49.296;6.900;2023-02-21T05:39:34;11.73;;;4.55;;
66567;SDS011;53422;49.296;6.900;2023-02-21T05:42:00;13.65;;;4.53;;
66567;SDS011;53422;49.296;6.900;2023-02-21T05:44:26;11.52;;;4.43;;
66567;SDS011;53422;49.296;6.900;2023-02-21T05:46:51;9.02;;;4.47;;
66567;SDS011;53422;49.296;6.900;2023-02-21T05:49:17;13.73;;;4.78;;
66567;SDS011;53422;49.296;6.900;2023-02-21T05:51:43;13.20;;;4.50;;
66567;SDS011;53422;49.296;6.900;2023-02-21T05:54:12;11.52;;;5.13;;
66567;SDS011;53422;49.296;6.900;2023-02-21T05:56:41;12.10;;;4.72;;
66567;SDS011;53422;49.296;6.900;2023-02-21T05:59:08;15.00;;;4.60;;
66567;SDS011;53422;49.296;6.900;2023-02-21T06:01:35;18.00;;;5.38;;
66567;SDS011;53422;49.296;6.900;2023-02-21T06:04:00;13.15;;;4.72;;
66567;SDS011;53422;49.296;6.900;2023-02-21T06:06:26;12.45;;;4.28;;
66567;SDS011;53422;49.296;6.900;2023-02-21T06:08:52;10.98;;;4.70;;
66567;SDS011;53422;49.296;6.900;2023-02-21T06:11:22;11.10;;;4.20;;
66567;SDS011;53422;49.296;6.900;2023-02-21T06:13:50;12.48;;;3.97;;
66567;SDS011;53422;49.296;6.900;2023-02-21T06:16:16;12.25;;;4.95;;
66567;SDS011;53422;49.296;6.900;2023-02-21T06:18:42;12.32;;;4.90;;
66567;SDS011;53422;49.296;6.900;2023-02-21T06:21:08;10.77;;;4.45;;
66567;SDS011;53422;49.296;6.900;2023-02-21T06:23:33;13.35;;;5.32;;
66567;SDS011;53422;49.296;6.900;2023-02-21T06:25:59;13.18;;;4.88;;
66567;SDS011;53422;49.296;6.900;2023-02-21T06:28:28;8.57;;;4.35;;
66567;SDS011;53422;49.296;6.900;2023-02-21T06:30:54;14.02;;;4.82;;
66567;SDS011;53422;49.296;6.900;2023-02-21T06:33:20;17.27;;;5.18;;
66567;SDS011;53422;49.296;6.900;2023-02-21T06:35:46;12.52;;;5.00;;
66567;SDS011;53422;49.296;6.900;2023-02-21T06:38:11;14.32;;;5.15;;
66567;SDS011;53422;49.296;6.900;2023-02-21T06:40:37;12.90;;;5.22;;
66567;SDS011;53422;49.296;6.900;2023-02-21T06:43:02;14.88;;;5.40;;
66567;SDS011;53422;49.296;6.900;2023-02-21T06:45:28;9.95;;;4.15;;
66567;SDS011;53422;49.296;6.900;2023-02-21T06:47:54;12.90;;;5.15;;
66567;SDS011;53422;49.296;6.900;2023-02-21T06:50:19;17.38;;;5.70;;
66567;SDS011;53422;49.296;6.900;2023-02-21T06:52:45;14.30;;;5.80;;
66567;SDS011;53422;49.296;6.900;2023-02-21T06:55:10;14.65;;;4.82;;
66567;SDS011;53422;49.296;6.900;2023-02-21T06:57:36;14.57;;;6.15;;
66567;SDS011;53422;49.296;6.900;2023-02-21T07:00:02;12.85;;;5.15;;
66567;SDS011;53422;49.296;6.900;2023-02-21T07:02:29;12.48;;;4.88;;
66567;SDS011;53422;49.296;6.900;2023-02-21T07:04:55;13.80;;;6.18;;
66567;SDS011;53422;49.296;6.900;2023-02-21T07:07:21;15.40;;;5.28;;
66567;SDS011;53422;49.296;6.900;2023-02-21T07:09:46;13.27;;;5.25;;
66567;SDS011;53422;49.296;6.900;2023-02-21T07:12:12;14.65;;;5.25;;
66567;SDS011;53422;49.296;6.900;2023-02-21T07:14:38;11.60;;;5.55;;
66567;SDS011;53422;49.296;6.900;2023-02-21T07:17:03;12.82;;;4.97;;
66567;SDS011;53422;49.296;6.900;2023-02-21T07:19:29;13.15;;;5.28;;
66567;SDS011;53422;49.296;6.900;2023-02-21T07:21:54;13.40;;;5.72;;
66567;SDS011;53422;49.296;6.900;2023-02-21T07:24:20;13.68;;;5.80;;
66567;SDS011;53422;49.296;6.900;2023-02-21T07:26:46;19.83;;;7.43;;
66567;SDS011;53422;49.296;6.900;2023-02-21T07:29:11;16.77;;;7.30;;
66567;SDS011;53422;49.296;6.900;2023-02-21T07:31:37;15.50;;;7.47;;
66567;SDS011;53422;49.296;6.900;2023-02-21T07:34:02;18.45;;;6.18;;
66567;SDS011;53422;49.296;6.900;2023-02-21T07:36:28;13.52;;;5.53;;
66567;SDS011;53422;49.296;6.900;2023-02-21T07:38:54;15.27;;;6.47;;
66567;SDS011;53422;49.296;6.900;2023-02-21T07:41:19;23.35;;;7.50;;
66567;SDS011;53422;49.296;6.900;2023-02-21T07:43:45;20.17;;;7.15;;
66567;SDS011;53422;49.296;6.900;2023-02-21T07:46:12;17.73;;;6.95;;
66567;SDS011;53422;49.296;6.900;2023-02-21T07:48:39;15.95;;;6.57;;
66567;SDS011;53422;49.296;6.900;2023-02-21T07:51:08;18.25;;;6.88;;
66567;SDS011;53422;49.296;6.900;2023-02-21T07:53:34;13.07;;;5.55;;
66567;SDS011;53422;49.296;6.900;2023-02-21T07:55:59;15.20;;;6.63;;
66567;SDS011;53422;49.296;6.900;2023-02-21T07:58:25;13.88;;;6.63;;
66567;SDS011;53422;49.296;6.900;2023-02-21T08:00:51;14.57;;;6.70;;
66567;SDS011;53422;49.296;6.900;2023-02-21T08:03:19;14.68;;;6.60;;
66567;SDS011;53422;49.296;6.900;2023-02-21T08:05:46;19.20;;;7.07;;
66567;SDS011;53422;49.296;6.900;2023-02-21T08:08:13;16.50;;;6.50;;
66567;SDS011;53422;49.296;6.900;2023-02-21T08:10:39;14.35;;;6.07;;
66567;SDS011;53422;49.296;6.900;2023-02-21T08:13:05;17.13;;;6.50;;
66567;SDS011;53422;49.296;6.900;2023-02-21T08:15:30;40.95;;;15.05;;
66567;SDS011;53422;49.296;6.900;2023-02-21T08:17:56;44.10;;;15.27;;
66567;SDS011;53422;49.296;6.900;2023-02-21T08:20:21;43.72;;;14.70;;
66567;SDS011;53422;49.296;6.900;2023-02-21T08:22:47;35.88;;;12.40;;
66567;SDS011;53422;49.296;6.900;2023-02-21T08:25:13;34.83;;;12.73;;
66567;SDS011;53422;49.296;6.900;2023-02-21T08:27:40;35.83;;;13.25;;
66567;SDS011;53422;49.296;6.900;2023-02-21T08:30:07;42.58;;;15.10;;
66567;SDS011;53422;49.296;6.900;2023-02-21T08:32:34;44.10;;;15.50;;
66567;SDS011;53422;49.296;6.900;2023-02-21T08:35:01;41.70;;;15.68;;
66567;SDS011;53422;49.296;6.900;2023-02-21T08:37:31;31.98;;;13.32;;
66567;SDS011;53422;49.296;6.900;2023-02-21T08:40:00;36.40;;;12.95;;
66567;SDS011;53422;49.296;6.900;2023-02-21T08:42:28;27.10;;;11.93;;
66567;SDS011;53422;49.296;6.900;2023-02-21T08:44:53;31.10;;;12.10;;
66567;SDS011;53422;49.296;6.900;2023-02-21T08:47:19;32.22;;;12.82;;
66567;SDS011;53422;49.296;6.900;2023-02-21T08:49:46;32.97;;;12.38;;
66567;SDS011;53422;49.296;6.900;2023-02-21T08:52:13;29.50;;;11.90;;
66567;SDS011;53422;49.296;6.900;2023-02-21T08:54:40;26.35;;;11.68;;
66567;SDS011;53422;49.296;6.900;2023-02-21T08:57:06;27.80;;;11.10;;
66567;SDS011;53422;49.296;6.900;2023-02-21T08:59:32;26.17;;;10.38;;
66567;SDS011;53422;49.296;6.900;2023-02-21T09:01:59;26.55;;;11.30;;
66567;SDS011;53422;49.296;6.900;2023-02-21T09:04:25;33.35;;;14.00;;
66567;SDS011;53422;49.296;6.900;2023-02-21T09:06:52;33.45;;;14.15;;
66567;SDS011;53422;49.296;6.900;2023-02-21T09:09:18;35.17;;;14.35;;
66567;SDS011;53422;49.296;6.900;2023-02-21T09:11:44;24.23;;;9.70;;
66567;SDS011;53422;49.296;6.900;2023-02-21T09:14:12;20.15;;;9.10;;
66567;SDS011;53422;49.296;6.900;2023-02-21T09:16:39;18.45;;;8.13;;
66567;SDS011;53422;49.296;6.900;2023-02-21T09:19:06;19.88;;;7.00;;
66567;SDS011;53422;49.296;6.900;2023-02-21T09:21:32;17.48;;;8.27;;
66567;SDS011;53422;49.296;6.900;2023-02-21T09:23:58;23.85;;;8.30;;
66567;SDS011;53422;49.296;6.900;2023-02-21T09:28:56;18.65;;;7.90;;
66567;SDS011;53422;49.296;6.900;2023-02-21T09:31:22;19.08;;;7.82;;
66567;SDS011;53422;49.296;6.900;2023-02-21T09:33:48;19.92;;;7.97;;
66567;SDS011;53422;49.296;6.900;2023-02-21T09:36:13;19.83;;;8.02;;
66567;SDS011;53422;49.296;6.900;2023-02-21T09:38:39;24.98;;;8.98;;
66567;SDS011;53422;49.296;6.900;2023-02-21T09:46:12;16.30;;;6.75;;
66567;SDS011;53422;49.296;6.900;2023-02-21T09:48:53;18.05;;;7.40;;
66567;SDS011;53422;49.296;6.900;2023-02-21T09:51:19;18.83;;;7.75;;
66567;SDS011;53422;49.296;6.900;2023-02-21T09:53:45;20.13;;;7.70;;
66567;SDS011;53422;49.296;6.900;2023-02-21T09:56:17;20.45;;;7.57;;
66567;SDS011;53422;49.296;6.900;2023-02-21T09:58:49;22.80;;;9.15;;
66567;SDS011;53422;49.296;6.900;2023-02-21T10:01:28;29.55;;;11.52;;
66567;SDS011;53422;49.296;6.900;2023-02-21T10:07:17;17.00;;;8.10;;
66567;SDS011;53422;49.296;6.900;2023-02-21T10:12:44;27.05;;;9.93;;
66567;SDS011;53422;49.296;6.900;2023-02-21T10:15:25;23.83;;;9.00;;
66567;SDS011;53422;49.296;6.900;2023-02-21T10:23:24;22.25;;;8.88;;
66567;SDS011;53422;49.296;6.900;2023-02-21T10:25:56;23.85;;;9.18;;
66567;SDS011;53422;49.296;6.900;2023-02-21T10:28:26;27.15;;;10.18;;
66567;SDS011;53422;49.296;6.900;2023-02-21T10:31:00;24.08;;;9.57;;
66567;SDS011;53422;49.296;6.900;2023-02-21T10:33:30;23.13;;;8.15;;
66567;SDS011;53422;49.296;6.900;2023-02-21T10:35:59;21.13;;;7.85;;
66567;SDS011;53422;49.296;6.900;2023-02-21T10:38:25;22.73;;;8.20;;
66567;SDS011;53422;49.296;6.900;2023-02-21T10:48:43;20.92;;;7.78;;
66567;SDS011;53422;49.296;6.900;2023-02-21T10:53:43;22.55;;;8.60;;
66567;SDS011;53422;49.296;6.900;2023-02-21T10:58:40;26.48;;;9.93;;
66567;SDS011;53422;49.296;6.900;2023-02-21T11:01:37;21.90;;;8.20;;
66567;SDS011;53422;49.296;6.900;2023-02-21T11:06:48;19.80;;;8.35;;
66567;SDS011;53422;49.296;6.900;2023-02-21T11:12:18;21.55;;;7.97;;
66567;SDS011;53422;49.296;6.900;2023-02-21T11:15:02;22.17;;;7.90;;
66567;SDS011;53422;49.296;6.900;2023-02-21T11:17:30;19.65;;;7.45;;
66567;SDS011;53422;49.296;6.900;2023-02-21T11:19:57;16.85;;;6.63;;
66567;SDS011;53422;49.296;6.900;2023-02-21T11:22:48;17.92;;;6.82;;
66567;SDS011;53422;49.296;6.900;2023-02-21T11:25:19;19.35;;;6.53;;
66567;SDS011;53422;49.296;6.900;2023-02-21T11:27:57;14.45;;;6.15;;
66567;SDS011;53422;49.296;6.900;2023-02-21T11:30:25;23.00;;;7.55;;
66567;SDS011;53422;49.296;6.900;2023-02-21T11:32:53;14.38;;;6.47;;
66567;SDS011;53422;49.296;6.900;2023-02-21T11:41:01;13.90;;;6.60;;
66567;SDS011;53422;49.296;6.900;2023-02-21T11:43:51;14.18;;;4.93;;
66567;SDS011;53422;49.296;6.900;2023-02-21T11:51:40;10.85;;;6.07;;
66567;SDS011;53422;49.296;6.900;2023-02-21T11:54:13;12.55;;;5.40;;
66567;SDS011;53422;49.296;6.900;2023-02-21T12:16:01;8.32;;;3.72;;
66567;SDS011;53422;49.296;6.900;2023-02-21T12:48:35;9.25;;;4.07;;
66567;SDS011;53422;49.296;6.900;2023-02-21T12:51:09;11.00;;;3.88;;
66567;SDS011;53422;49.296;6.900;2023-02-21T12:53:50;9.98;;;4.45;;
66567;SDS011;53422;49.296;6.900;2023-02-21T12:56:25;8.75;;;3.85;;
66567;SDS011;53422;49.296;6.900;2023-02-21T13:01:43;10.65;;;4.30;;
66567;SDS011;53422;49.296;6.900;2023-02-21T13:07:13;7.28;;;3.08;;
66567;SDS011;53422;49.296;6.900;2023-02-21T13:09:59;10.23;;;3.83;;
66567;SDS011;53422;49.296;6.900;2023-02-21T13:12:54;8.48;;;4.00;;
66567;SDS011;53422;49.296;6.900;2023-02-21T13:15:28;9.35;;;3.50;;
66567;SDS011;53422;49.296;6.900;2023-02-21T13:18:08;12.13;;;4.60;;
66567;SDS011;53422;49.296;6.900;2023-02-21T13:20:46;12.30;;;3.80;;
66567;SDS011;53422;49.296;6.900;2023-02-21T13:23:18;8.27;;;3.42;;
66567;SDS011;53422;49.296;6.900;2023-02-21T13:28:28;9.98;;;3.50;;
66567;SDS011;53422;49.296;6.900;2023-02-21T13:31:03;6.57;;;3.28;;
66567;SDS011;53422;49.296;6.900;2023-02-21T13:33:37;10.70;;;4.20;;
66567;SDS011;53422;49.296;6.900;2023-02-21T13:39:27;7.80;;;3.63;;
66567;SDS011;53422;49.296;6.900;2023-02-21T13:42:00;9.00;;;3.28;;
66567;SDS011;53422;49.296;6.900;2023-02-21T13:44:32;11.65;;;4.22;;
66567;SDS011;53422;49.296;6.900;2023-02-21T13:47:21;10.15;;;3.13;;
66567;SDS011;53422;49.296;6.900;2023-02-21T13:49:54;8.32;;;3.83;;
66567;SDS011;53422;49.296;6.900;2023-02-21T13:55:08;8.27;;;3.08;;
66567;SDS011;53422;49.296;6.900;2023-02-21T13:57:40;8.10;;;3.38;;
66567;SDS011;53422;49.296;6.900;2023-02-21T14:03:27;12.30;;;3.40;;
66567;SDS011;53422;49.296;6.900;2023-02-21T14:08:18;8.10;;;3.53;;
66567;SDS011;53422;49.296;6.900;2023-02-21T14:21:03;9.90;;;4.38;;
66567;SDS011;53422;49.296;6.900;2023-02-21T14:24:12;12.52;;;4.53;;
66567;SDS011;53422;49.296;6.900;2023-02-21T14:26:50;9.20;;;3.85;;
66567;SDS011;53422;49.296;6.900;2023-02-21T15:08:15;8.73;;;3.58;;
66567;SDS011;53422;49.296;6.900;2023-02-21T15:10:43;8.85;;;3.90;;
66567;SDS011;53422;49.296;6.900;2023-02-21T15:13:46;11.23;;;3.63;;
66567;SDS011;53422;49.296;6.900;2023-02-21T15:16:06;10.18;;;4.15;;
66567;SDS011;53422;49.296;6.900;2023-02-21T15:18:37;9.50;;;4.10;;
66567;SDS011;53422;49.296;6.900;2023-02-21T15:23:43;13.25;;;4.00;;
66567;SDS011;53422;49.296;6.900;2023-02-21T15:26:18;10.02;;;4.68;;
66567;SDS011;53422;49.296;6.900;2023-02-21T15:28:46;11.52;;;4.32;;
66567;SDS011;53422;49.296;6.900;2023-02-21T15:31:27;12.93;;;4.80;;
66567;SDS011;53422;49.296;6.900;2023-02-21T15:33:55;11.23;;;4.68;;
66567;SDS011;53422;49.296;6.900;2023-02-21T15:36:21;9.15;;;4.25;;
66567;SDS011;53422;49.296;6.900;2023-02-21T15:39:01;13.52;;;5.07;;
66567;SDS011;53422;49.296;6.900;2023-02-21T15:41:36;12.18;;;4.95;;
66567;SDS011;53422;49.296;6.900;2023-02-21T15:44:15;12.07;;;5.07;;
66567;SDS011;53422;49.296;6.900;2023-02-21T15:46:52;11.75;;;5.13;;
66567;SDS011;53422;49.296;6.900;2023-02-21T15:49:34;9.57;;;4.63;;
66567;SDS011;53422;49.296;6.900;2023-02-21T15:52:04;13.30;;;5.32;;
66567;SDS011;53422;49.296;6.900;2023-02-21T15:54:34;13.48;;;5.93;;
66567;SDS011;53422;49.296;6.900;2023-02-21T15:57:03;11.43;;;5.35;;
66567;SDS011;53422;49.296;6.900;2023-02-21T15:59:29;14.95;;;5.28;;
66567;SDS011;53422;49.296;6.900;2023-02-21T16:02:05;15.02;;;5.60;;
66567;SDS011;53422;49.296;6.900;2023-02-21T16:04:38;17.92;;;6.78;;
66567;SDS011;53422;49.296;6.900;2023-02-21T16:09:34;16.42;;;7.07;;
66567;SDS011;53422;49.296;6.900;2023-02-21T16:19:52;12.23;;;5.93;;
66567;SDS011;53422;49.296;6.900;2023-02-21T16:22:25;11.82;;;5.13;;
66567;SDS011;53422;49.296;6.900;2023-02-21T16:25:12;9.77;;;4.55;;
66567;SDS011;53422;49.296;6.900;2023-02-21T16:27:42;9.48;;;4.80;;
66567;SDS011;53422;49.296;6.900;2023-02-21T16:30:31;11.18;;;4.75;;
66567;SDS011;53422;49.296;6.900;2023-02-21T16:33:00;10.30;;;4.78;;
66567;SDS011;53422;49.296;6.900;2023-02-21T16:35:28;10.00;;;4.55;;
66567;SDS011;53422;49.296;6.900;2023-02-21T16:37:58;8.85;;;4.45;;
66567;SDS011;53422;49.296;6.900;2023-02-21T16:40:25;9.23;;;4.55;;
66567;SDS011;53422;49.296;6.900;2023-02-21T16:42:54;11.40;;;4.53;;
66567;SDS011;53422;49.296;6.900;2023-02-21T16:45:21;8.88;;;4.00;;
66567;SDS011;53422;49.296;6.900;2023-02-21T16:47:47;9.45;;;4.00;;
66567;SDS011;53422;49.296;6.900;2023-02-21T16:50:25;8.07;;;3.67;;
66567;SDS011;53422;49.296;6.900;2023-02-21T16:52:53;10.07;;;3.70;;
66567;SDS011;53422;49.296;6.900;2023-02-21T16:55:20;10.48;;;3.67;;
66567;SDS011;53422;49.296;6.900;2023-02-21T16:57:46;10.02;;;4.03;;
66567;SDS011;53422;49.296;6.900;2023-02-21T17:00:14;15.43;;;5.53;;
66567;SDS011;53422;49.296;6.900;2023-02-21T17:02:41;15.00;;;6.38;;
66567;SDS011;53422;49.296;6.900;2023-02-21T17:05:07;10.10;;;4.70;;
66567;SDS011;53422;49.296;6.900;2023-02-21T17:07:33;12.20;;;4.72;;
66567;SDS011;53422;49.296;6.900;2023-02-21T17:09:59;10.95;;;5.10;;
66567;SDS011;53422;49.296;6.900;2023-02-21T17:12:24;14.50;;;5.25;;
66567;SDS011;53422;49.296;6.900;2023-02-21T17:14:51;15.30;;;6.13;;
66567;SDS011;53422;49.296;6.900;2023-02-21T17:17:17;13.32;;;6.20;;
66567;SDS011;53422;49.296;6.900;2023-02-21T17:19:42;13.20;;;5.20;;
66567;SDS011;53422;49.296;6.900;2023-02-21T17:22:08;10.73;;;5.82;;
66567;SDS011;53422;49.296;6.900;2023-02-21T17:24:34;13.02;;;6.32;;
66567;SDS011;53422;49.296;6.900;2023-02-21T17:27:00;12.27;;;5.65;;
66567;SDS011;53422;49.296;6.900;2023-02-21T17:29:25;18.80;;;6.50;;
66567;SDS011;53422;49.296;6.900;2023-02-21T17:31:52;16.95;;;7.13;;
66567;SDS011;53422;49.296;6.900;2023-02-21T17:34:18;15.75;;;6.72;;
66567;SDS011;53422;49.296;6.900;2023-02-21T17:36:46;17.83;;;7.78;;
66567;SDS011;53422;49.296;6.900;2023-02-21T17:39:14;17.75;;;7.55;;
66567;SDS011;53422;49.296;6.900;2023-02-21T17:41:47;42.88;;;12.90;;
66567;SDS011;53422;49.296;6.900;2023-02-21T17:44:14;24.20;;;9.68;;
66567;SDS011;53422;49.296;6.900;2023-02-21T17:46:46;21.38;;;8.02;;
66567;SDS011;53422;49.296;6.900;2023-02-21T17:49:15;16.90;;;6.55;;
66567;SDS011;53422;49.296;6.900;2023-02-21T17:51:42;10.88;;;4.93;;
66567;SDS011;53422;49.296;6.900;2023-02-21T17:54:08;11.60;;;5.38;;
66567;SDS011;53422;49.296;6.900;2023-02-21T17:56:34;11.93;;;5.32;;
66567;SDS011;53422;49.296;6.900;2023-02-21T17:59:00;11.55;;;4.88;;
66567;SDS011;53422;49.296;6.900;2023-02-21T18:01:25;12.98;;;5.45;;
66567;SDS011;53422;49.296;6.900;2023-02-21T18:03:53;17.35;;;6.10;;
66567;SDS011;53422;49.296;6.900;2023-02-21T18:06:18;12.93;;;5.82;;
66567;SDS011;53422;49.296;6.900;2023-02-21T18:08:45;15.18;;;5.97;;
66567;SDS011;53422;49.296;6.900;2023-02-21T18:11:11;16.02;;;7.05;;
66567;SDS011;53422;49.296;6.900;2023-02-21T18:13:38;21.45;;;7.20;;
66567;SDS011;53422;49.296;6.900;2023-02-21T18:16:04;18.20;;;7.43;;
66567;SDS011;53422;49.296;6.900;2023-02-21T18:18:30;16.40;;;7.20;;
66567;SDS011;53422;49.296;6.900;2023-02-21T18:20:57;15.90;;;6.80;;
66567;SDS011;53422;49.296;6.900;2023-02-21T18:23:24;13.50;;;6.35;;
66567;SDS011;53422;49.296;6.900;2023-02-21T18:25:50;15.85;;;6.07;;
66567;SDS011;53422;49.296;6.900;2023-02-21T18:28:16;16.30;;;6.22;;
66567;SDS011;53422;49.296;6.900;2023-02-21T18:30:41;17.00;;;6.45;;
66567;SDS011;53422;49.296;6.900;2023-02-21T18:33:07;13.02;;;6.10;;
66567;SDS011;53422;49.296;6.900;2023-02-21T18:35:32;16.33;;;6.70;;
66567;SDS011;53422;49.296;6.900;2023-02-21T18:37:58;14.52;;;6.47;;
66567;SDS011;53422;49.296;6.900;2023-02-21T18:40:24;14.82;;;6.72;;
66567;SDS011;53422;49.296;6.900;2023-02-21T18:42:59;16.00;;;6.85;;